sensor_id;sensor_type;location;lat;lon;timestamp;temperature;humidity
41344;DHT22;27089;50.022;7.604;2022-10-16T00:00:02;13.90;99.90
41344;DHT22;27089;50.022;7.604;2022-10-16T00:02:30;13.90;99.90
41344;DHT22;27089;50.022;7.604;2022-10-16T00:04:59;13.90;99.90
41344;DHT22;27089;50.022;7.604;2022-10-16T00:07:26;13.90;99.90
41344;DHT22;27089;50.022;7.604;2022-10-16T00:09:53;13.90;99.90
41344;DHT22;27089;50.022;7.604;2022-10-16T00:12:21;13.90;99.90
41344;DHT22;27089;50.022;7.604;2022-10-16T00:14:47;13.90;99.90
41344;DHT22;27089;50.022;7.604;2022-10-16T00:17:14;13.90;99.90
41344;DHT22;27089;50.022;7.604;2022-10-16T00:19:41;13.90;99.90
41344;DHT22;27089;50.022;7.604;2022-10-16T00:22:10;13.90;99.90
41344;DHT22;27089;50.022;7.604;2022-10-16T00:24:37;13.90;99.90
41344;DHT22;27089;50.022;7.604;2022-10-16T00:27:04;13.90;99.90
41344;DHT22;27089;50.022;7.604;2022-10-16T00:29:31;13.90;99.90
41344;DHT22;27089;50.022;7.604;2022-10-16T00:31:58;13.90;99.90
41344;DHT22;27089;50.022;7.604;2022-10-16T00:34:25;13.90;99.90
41344;DHT22;27089;50.022;7.604;2022-10-16T00:36:52;13.90;99.90
41344;DHT22;27089;50.022;7.604;2022-10-16T00:39:21;13.90;99.90
41344;DHT22;27089;50.022;7.604;2022-10-16T00:41:48;13.90;99.90
41344;DHT22;27089;50.022;7.604;2022-10-16T00:44:49;13.90;99.90
41344;DHT22;27089;50.022;7.604;2022-10-16T00:47:21;13.80;99.90
41344;DHT22;27089;50.022;7.604;2022-10-16T00:49:51;13.80;99.90
41344;DHT22;27089;50.022;7.604;2022-10-16T00:52:20;13.80;99.90
41344;DHT22;27089;50.022;7.604;2022-10-16T00:54:49;13.80;99.90
41344;DHT22;27089;50.022;7.604;2022-10-16T00:57:17;13.80;99.90
41344;DHT22;27089;50.022;7.604;2022-10-16T00:59:45;13.80;99.90
41344;DHT22;27089;50.022;7.604;2022-10-16T01:02:15;13.80;99.90
41344;DHT22;27089;50.022;7.604;2022-10-16T01:04:44;13.80;99.90
41344;DHT22;27089;50.022;7.604;2022-10-16T01:07:18;13.80;99.90
41344;DHT22;27089;50.022;7.604;2022-10-16T01:10:02;13.80;99.90
41344;DHT22;27089;50.022;7.604;2022-10-16T01:12:39;13.70;99.90
41344;DHT22;27089;50.022;7.604;2022-10-16T01:15:13;13.70;99.90
41344;DHT22;27089;50.022;7.604;2022-10-16T01:17:47;13.70;99.90
41344;DHT22;27089;50.022;7.604;2022-10-16T01:20:22;13.70;99.90
41344;DHT22;27089;50.022;7.604;2022-10-16T01:23:03;13.70;99.90
41344;DHT22;27089;50.022;7.604;2022-10-16T01:25:52;13.70;99.90
41344;DHT22;27089;50.022;7.604;2022-10-16T01:28:28;13.70;99.90
41344;DHT22;27089;50.022;7.604;2022-10-16T01:30:59;13.70;99.90
41344;DHT22;27089;50.022;7.604;2022-10-16T01:33:34;13.60;99.90
41344;DHT22;27089;50.022;7.604;2022-10-16T01:36:07;13.60;99.90
41344;DHT22;27089;50.022;7.604;2022-10-16T01:38:37;13.60;99.90
41344;DHT22;27089;50.022;7.604;2022-10-16T01:41:09;13.70;99.90
41344;DHT22;27089;50.022;7.604;2022-10-16T01:43:42;13.70;99.90
41344;DHT22;27089;50.022;7.604;2022-10-16T01:46:10;13.70;99.90
41344;DHT22;27089;50.022;7.604;2022-10-16T01:48:40;13.70;99.90
41344;DHT22;27089;50.022;7.604;2022-10-16T01:51:10;13.70;99.90
41344;DHT22;27089;50.022;7.604;2022-10-16T01:53:40;13.70;99.90
41344;DHT22;27089;50.022;7.604;2022-10-16T01:56:11;13.70;99.90
41344;DHT22;27089;50.022;7.604;2022-10-16T01:58:49;13.80;99.90
41344;DHT22;27089;50.022;7.604;2022-10-16T02:01:19;13.80;99.90
41344;DHT22;27089;50.022;7.604;2022-10-16T02:03:51;13.80;99.90
41344;DHT22;27089;50.022;7.604;2022-10-16T02:06:20;13.80;99.90
41344;DHT22;27089;50.022;7.604;2022-10-16T02:08:47;13.80;99.90
41344;DHT22;27089;50.022;7.604;2022-10-16T02:11:14;13.70;99.90
41344;DHT22;27089;50.022;7.604;2022-10-16T02:13:46;13.70;99.90
41344;DHT22;27089;50.022;7.604;2022-10-16T02:16:15;13.70;99.90
41344;DHT22;27089;50.022;7.604;2022-10-16T02:18:43;13.70;99.90
41344;DHT22;27089;50.022;7.604;2022-10-16T02:21:15;13.70;99.90
41344;DHT22;27089;50.022;7.604;2022-10-16T02:23:49;13.70;99.90
41344;DHT22;27089;50.022;7.604;2022-10-16T02:26:22;13.70;99.90
41344;DHT22;27089;50.022;7.604;2022-10-16T02:28:59;13.70;99.90
41344;DHT22;27089;50.022;7.604;2022-10-16T02:31:32;13.70;99.90
41344;DHT22;27089;50.022;7.604;2022-10-16T02:34:03;13.70;99.90
41344;DHT22;27089;50.022;7.604;2022-10-16T02:36:32;13.70;99.90
41344;DHT22;27089;50.022;7.604;2022-10-16T02:39:01;13.70;99.90
41344;DHT22;27089;50.022;7.604;2022-10-16T02:41:30;13.70;99.90
41344;DHT22;27089;50.022;7.604;2022-10-16T02:44:00;13.70;99.90
41344;DHT22;27089;50.022;7.604;2022-10-16T02:46:27;13.70;99.90
41344;DHT22;27089;50.022;7.604;2022-10-16T02:48:55;13.60;99.90
41344;DHT22;27089;50.022;7.604;2022-10-16T02:51:22;13.60;99.90
41344;DHT22;27089;50.022;7.604;2022-10-16T02:53:49;13.60;99.90
41344;DHT22;27089;50.022;7.604;2022-10-16T02:56:16;13.60;99.90
41344;DHT22;27089;50.022;7.604;2022-10-16T02:58:44;13.60;99.90
41344;DHT22;27089;50.022;7.604;2022-10-16T03:01:13;13.60;99.90
41344;DHT22;27089;50.022;7.604;2022-10-16T03:03:42;13.60;99.90
41344;DHT22;27089;50.022;7.604;2022-10-16T03:06:11;13.60;99.90
41344;DHT22;27089;50.022;7.604;2022-10-16T03:08:38;13.60;99.90
41344;DHT22;27089;50.022;7.604;2022-10-16T03:11:05;13.60;99.90
41344;DHT22;27089;50.022;7.604;2022-10-16T03:13:34;13.60;99.90
41344;DHT22;27089;50.022;7.604;2022-10-16T03:16:01;13.60;99.90
41344;DHT22;27089;50.022;7.604;2022-10-16T03:18:31;13.60;99.90
41344;DHT22;27089;50.022;7.604;2022-10-16T03:20:58;13.60;99.90
41344;DHT22;27089;50.022;7.604;2022-10-16T03:23:27;13.60;99.90
41344;DHT22;27089;50.022;7.604;2022-10-16T03:25:54;13.60;99.90
41344;DHT22;27089;50.022;7.604;2022-10-16T03:28:21;13.60;99.90
41344;DHT22;27089;50.022;7.604;2022-10-16T03:30:49;13.60;99.90
41344;DHT22;27089;50.022;7.604;2022-10-16T03:33:16;13.60;99.90
41344;DHT22;27089;50.022;7.604;2022-10-16T03:35:51;13.60;99.90
41344;DHT22;27089;50.022;7.604;2022-10-16T03:38:18;13.60;99.90
41344;DHT22;27089;50.022;7.604;2022-10-16T03:40:45;13.60;99.90
41344;DHT22;27089;50.022;7.604;2022-10-16T03:43:12;13.60;99.90
41344;DHT22;27089;50.022;7.604;2022-10-16T03:45:39;13.70;99.90
41344;DHT22;27089;50.022;7.604;2022-10-16T03:48:06;13.70;99.90
41344;DHT22;27089;50.022;7.604;2022-10-16T03:50:33;13.80;99.90
41344;DHT22;27089;50.022;7.604;2022-10-16T03:53:02;13.80;99.90
41344;DHT22;27089;50.022;7.604;2022-10-16T03:55:29;13.80;99.90
41344;DHT22;27089;50.022;7.604;2022-10-16T03:57:56;13.90;99.90
41344;DHT22;27089;50.022;7.604;2022-10-16T04:00:23;13.90;99.90
41344;DHT22;27089;50.022;7.604;2022-10-16T04:02:50;13.90;99.90
41344;DHT22;27089;50.022;7.604;2022-10-16T04:05:19;13.90;99.90
41344;DHT22;27089;50.022;7.604;2022-10-16T04:07:46;13.90;99.90
41344;DHT22;27089;50.022;7.604;2022-10-16T04:10:14;13.90;99.90
41344;DHT22;27089;50.022;7.604;2022-10-16T04:12:41;14.00;99.90
41344;DHT22;27089;50.022;7.604;2022-10-16T04:15:09;14.00;99.90
41344;DHT22;27089;50.022;7.604;2022-10-16T04:17:36;14.00;99.90
41344;DHT22;27089;50.022;7.604;2022-10-16T04:20:04;14.00;99.90
41344;DHT22;27089;50.022;7.604;2022-10-16T04:22:31;14.00;99.90
41344;DHT22;27089;50.022;7.604;2022-10-16T04:24:58;14.10;99.90
41344;DHT22;27089;50.022;7.604;2022-10-16T04:27:27;14.10;99.90
41344;DHT22;27089;50.022;7.604;2022-10-16T04:29:56;14.10;99.90
41344;DHT22;27089;50.022;7.604;2022-10-16T04:32:24;14.10;99.90
41344;DHT22;27089;50.022;7.604;2022-10-16T04:34:51;14.10;99.90
41344;DHT22;27089;50.022;7.604;2022-10-16T04:37:23;14.20;99.90
41344;DHT22;27089;50.022;7.604;2022-10-16T04:39:50;14.20;99.90
41344;DHT22;27089;50.022;7.604;2022-10-16T04:42:18;14.20;99.90
41344;DHT22;27089;50.022;7.604;2022-10-16T04:44:47;14.20;99.90
41344;DHT22;27089;50.022;7.604;2022-10-16T04:47:14;14.20;99.90
41344;DHT22;27089;50.022;7.604;2022-10-16T04:49:42;14.20;99.90
41344;DHT22;27089;50.022;7.604;2022-10-16T04:52:25;14.20;99.90
41344;DHT22;27089;50.022;7.604;2022-10-16T04:54:52;14.20;99.90
41344;DHT22;27089;50.022;7.604;2022-10-16T04:57:22;14.20;99.90
41344;DHT22;27089;50.022;7.604;2022-10-16T04:59:50;14.20;99.90
41344;DHT22;27089;50.022;7.604;2022-10-16T05:02:17;14.20;99.90
41344;DHT22;27089;50.022;7.604;2022-10-16T05:04:45;14.20;99.90
41344;DHT22;27089;50.022;7.604;2022-10-16T05:07:12;14.20;99.90
41344;DHT22;27089;50.022;7.604;2022-10-16T05:09:39;14.20;99.90
41344;DHT22;27089;50.022;7.604;2022-10-16T05:12:06;14.20;99.90
41344;DHT22;27089;50.022;7.604;2022-10-16T05:14:33;14.20;99.90
41344;DHT22;27089;50.022;7.604;2022-10-16T05:17:06;14.20;99.90
41344;DHT22;27089;50.022;7.604;2022-10-16T05:19:33;14.10;99.90
41344;DHT22;27089;50.022;7.604;2022-10-16T05:22:00;14.10;99.90
41344;DHT22;27089;50.022;7.604;2022-10-16T05:24:28;14.10;99.90
41344;DHT22;27089;50.022;7.604;2022-10-16T05:26:55;14.10;99.90
41344;DHT22;27089;50.022;7.604;2022-10-16T05:29:22;14.10;99.90
41344;DHT22;27089;50.022;7.604;2022-10-16T05:31:51;14.10;99.90
41344;DHT22;27089;50.022;7.604;2022-10-16T05:34:20;14.10;99.90
41344;DHT22;27089;50.022;7.604;2022-10-16T05:36:47;14.10;99.90
41344;DHT22;27089;50.022;7.604;2022-10-16T05:39:15;14.10;99.90
41344;DHT22;27089;50.022;7.604;2022-10-16T05:41:42;14.10;99.90
41344;DHT22;27089;50.022;7.604;2022-10-16T05:44:10;14.10;99.90
41344;DHT22;27089;50.022;7.604;2022-10-16T05:46:37;14.10;99.90
41344;DHT22;27089;50.022;7.604;2022-10-16T05:49:04;14.10;99.90
41344;DHT22;27089;50.022;7.604;2022-10-16T05:51:32;14.10;99.90
41344;DHT22;27089;50.022;7.604;2022-10-16T05:54:00;14.10;99.90
41344;DHT22;27089;50.022;7.604;2022-10-16T05:56:27;14.10;99.90
41344;DHT22;27089;50.022;7.604;2022-10-16T05:58:54;14.10;99.90
41344;DHT22;27089;50.022;7.604;2022-10-16T06:01:21;14.10;99.90
41344;DHT22;27089;50.022;7.604;2022-10-16T06:03:50;14.10;99.90
41344;DHT22;27089;50.022;7.604;2022-10-16T06:06:19;14.10;99.90
41344;DHT22;27089;50.022;7.604;2022-10-16T06:08:48;14.20;99.90
41344;DHT22;27089;50.022;7.604;2022-10-16T06:11:18;14.20;99.90
41344;DHT22;27089;50.022;7.604;2022-10-16T06:13:48;14.20;99.90
41344;DHT22;27089;50.022;7.604;2022-10-16T06:16:15;14.20;99.90
41344;DHT22;27089;50.022;7.604;2022-10-16T06:18:42;14.20;99.90
41344;DHT22;27089;50.022;7.604;2022-10-16T06:21:11;14.20;99.90
41344;DHT22;27089;50.022;7.604;2022-10-16T06:23:40;14.20;99.90
41344;DHT22;27089;50.022;7.604;2022-10-16T06:26:09;14.20;99.90
41344;DHT22;27089;50.022;7.604;2022-10-16T06:28:37;14.20;99.90
41344;DHT22;27089;50.022;7.604;2022-10-16T06:31:06;14.20;99.90
41344;DHT22;27089;50.022;7.604;2022-10-16T06:33:34;14.20;99.90
41344;DHT22;27089;50.022;7.604;2022-10-16T06:36:03;14.20;99.90
41344;DHT22;27089;50.022;7.604;2022-10-16T06:38:30;14.30;99.90
41344;DHT22;27089;50.022;7.604;2022-10-16T06:40:58;14.30;99.90
41344;DHT22;27089;50.022;7.604;2022-10-16T06:43:29;14.30;99.90
41344;DHT22;27089;50.022;7.604;2022-10-16T06:45:58;14.30;99.90
41344;DHT22;27089;50.022;7.604;2022-10-16T06:48:27;14.30;99.90
41344;DHT22;27089;50.022;7.604;2022-10-16T06:50:58;14.30;99.90
41344;DHT22;27089;50.022;7.604;2022-10-16T06:53:27;14.30;99.90
41344;DHT22;27089;50.022;7.604;2022-10-16T06:55:55;14.30;99.90
41344;DHT22;27089;50.022;7.604;2022-10-16T06:58:22;14.30;99.90
41344;DHT22;27089;50.022;7.604;2022-10-16T07:00:56;14.30;99.90
41344;DHT22;27089;50.022;7.604;2022-10-16T07:03:23;14.30;99.90
41344;DHT22;27089;50.022;7.604;2022-10-16T07:05:50;14.30;99.90
41344;DHT22;27089;50.022;7.604;2022-10-16T07:08:17;14.30;99.90
41344;DHT22;27089;50.022;7.604;2022-10-16T07:10:44;14.30;99.90
41344;DHT22;27089;50.022;7.604;2022-10-16T07:13:11;14.40;99.90
41344;DHT22;27089;50.022;7.604;2022-10-16T07:15:40;14.40;99.90
41344;DHT22;27089;50.022;7.604;2022-10-16T07:18:08;14.40;99.90
41344;DHT22;27089;50.022;7.604;2022-10-16T07:20:35;14.40;99.90
41344;DHT22;27089;50.022;7.604;2022-10-16T07:23:03;14.40;99.90
41344;DHT22;27089;50.022;7.604;2022-10-16T07:25:30;14.40;99.90
41344;DHT22;27089;50.022;7.604;2022-10-16T07:28:00;14.40;99.90
41344;DHT22;27089;50.022;7.604;2022-10-16T07:30:27;14.40;99.90
41344;DHT22;27089;50.022;7.604;2022-10-16T07:32:55;14.50;99.90
41344;DHT22;27089;50.022;7.604;2022-10-16T07:35:24;14.50;99.90
41344;DHT22;27089;50.022;7.604;2022-10-16T07:37:51;14.50;99.90
41344;DHT22;27089;50.022;7.604;2022-10-16T07:40:19;14.50;99.90
41344;DHT22;27089;50.022;7.604;2022-10-16T07:42:47;14.50;99.90
41344;DHT22;27089;50.022;7.604;2022-10-16T07:45:14;14.50;99.90
41344;DHT22;27089;50.022;7.604;2022-10-16T07:47:41;14.50;99.90
41344;DHT22;27089;50.022;7.604;2022-10-16T07:50:08;14.50;99.90
41344;DHT22;27089;50.022;7.604;2022-10-16T07:52:37;14.50;99.90
41344;DHT22;27089;50.022;7.604;2022-10-16T07:55:07;14.50;99.90
41344;DHT22;27089;50.022;7.604;2022-10-16T07:57:34;14.60;99.90
41344;DHT22;27089;50.022;7.604;2022-10-16T08:00:01;14.60;99.90
41344;DHT22;27089;50.022;7.604;2022-10-16T08:02:28;14.60;99.90
41344;DHT22;27089;50.022;7.604;2022-10-16T08:04:55;14.70;99.90
41344;DHT22;27089;50.022;7.604;2022-10-16T08:07:22;14.70;99.90
41344;DHT22;27089;50.022;7.604;2022-10-16T08:09:51;14.70;99.90
41344;DHT22;27089;50.022;7.604;2022-10-16T08:12:19;14.70;99.90
41344;DHT22;27089;50.022;7.604;2022-10-16T08:14:46;14.70;99.90
41344;DHT22;27089;50.022;7.604;2022-10-16T08:17:14;14.70;99.90
41344;DHT22;27089;50.022;7.604;2022-10-16T08:19:44;14.70;99.90
41344;DHT22;27089;50.022;7.604;2022-10-16T08:22:12;14.70;99.90
41344;DHT22;27089;50.022;7.604;2022-10-16T08:24:39;14.80;99.90
41344;DHT22;27089;50.022;7.604;2022-10-16T08:27:07;14.90;99.90
41344;DHT22;27089;50.022;7.604;2022-10-16T08:29:35;15.00;99.90
41344;DHT22;27089;50.022;7.604;2022-10-16T08:32:04;15.30;99.90
41344;DHT22;27089;50.022;7.604;2022-10-16T08:34:31;15.80;99.90
41344;DHT22;27089;50.022;7.604;2022-10-16T08:36:59;16.70;99.90
41344;DHT22;27089;50.022;7.604;2022-10-16T08:39:26;17.80;99.90
41344;DHT22;27089;50.022;7.604;2022-10-16T08:42:09;18.30;99.90
41344;DHT22;27089;50.022;7.604;2022-10-16T08:45:12;18.40;99.90
41344;DHT22;27089;50.022;7.604;2022-10-16T08:47:48;18.30;99.90
41344;DHT22;27089;50.022;7.604;2022-10-16T08:50:23;18.20;99.90
41344;DHT22;27089;50.022;7.604;2022-10-16T08:52:52;18.00;99.90
41344;DHT22;27089;50.022;7.604;2022-10-16T08:55:30;17.70;99.90
41344;DHT22;27089;50.022;7.604;2022-10-16T08:58:01;17.40;99.90
41344;DHT22;27089;50.022;7.604;2022-10-16T09:00:28;17.10;99.90
41344;DHT22;27089;50.022;7.604;2022-10-16T09:03:04;16.90;99.90
41344;DHT22;27089;50.022;7.604;2022-10-16T09:05:57;16.70;99.90
41344;DHT22;27089;50.022;7.604;2022-10-16T09:08:33;16.50;99.90
41344;DHT22;27089;50.022;7.604;2022-10-16T09:11:10;16.40;99.90
41344;DHT22;27089;50.022;7.604;2022-10-16T09:13:48;16.30;99.90
41344;DHT22;27089;50.022;7.604;2022-10-16T09:16:22;16.40;99.90
41344;DHT22;27089;50.022;7.604;2022-10-16T09:18:56;16.40;99.90
41344;DHT22;27089;50.022;7.604;2022-10-16T09:21:30;16.40;99.90
41344;DHT22;27089;50.022;7.604;2022-10-16T09:23:58;16.40;99.90
41344;DHT22;27089;50.022;7.604;2022-10-16T09:26:26;16.50;99.90
41344;DHT22;27089;50.022;7.604;2022-10-16T09:28:55;16.50;99.90
41344;DHT22;27089;50.022;7.604;2022-10-16T09:31:23;16.60;99.90
41344;DHT22;27089;50.022;7.604;2022-10-16T09:33:53;16.70;99.90
41344;DHT22;27089;50.022;7.604;2022-10-16T09:36:23;16.70;99.90
41344;DHT22;27089;50.022;7.604;2022-10-16T09:39:02;16.80;99.90
41344;DHT22;27089;50.022;7.604;2022-10-16T09:41:30;16.90;99.90
41344;DHT22;27089;50.022;7.604;2022-10-16T09:44:00;17.00;99.90
41344;DHT22;27089;50.022;7.604;2022-10-16T09:46:29;16.90;99.90
41344;DHT22;27089;50.022;7.604;2022-10-16T09:48:58;16.90;99.90
41344;DHT22;27089;50.022;7.604;2022-10-16T09:51:28;16.80;99.90
41344;DHT22;27089;50.022;7.604;2022-10-16T09:53:57;16.80;99.90
41344;DHT22;27089;50.022;7.604;2022-10-16T09:56:26;16.70;99.90
41344;DHT22;27089;50.022;7.604;2022-10-16T09:58:55;16.80;99.90
41344;DHT22;27089;50.022;7.604;2022-10-16T10:01:29;17.10;99.90
41344;DHT22;27089;50.022;7.604;2022-10-16T10:03:58;17.30;99.90
41344;DHT22;27089;50.022;7.604;2022-10-16T10:06:30;17.50;99.90
41344;DHT22;27089;50.022;7.604;2022-10-16T10:09:02;17.60;99.90
41344;DHT22;27089;50.022;7.604;2022-10-16T10:11:50;18.00;99.90
41344;DHT22;27089;50.022;7.604;2022-10-16T10:14:27;18.50;99.90
41344;DHT22;27089;50.022;7.604;2022-10-16T10:17:10;18.70;99.90
41344;DHT22;27089;50.022;7.604;2022-10-16T10:19:39;18.60;99.90
41344;DHT22;27089;50.022;7.604;2022-10-16T10:22:17;18.40;99.90
41344;DHT22;27089;50.022;7.604;2022-10-16T10:24:55;18.30;99.90
41344;DHT22;27089;50.022;7.604;2022-10-16T10:27:26;18.20;99.90
41344;DHT22;27089;50.022;7.604;2022-10-16T10:30:01;18.10;99.90
41344;DHT22;27089;50.022;7.604;2022-10-16T10:32:40;18.10;99.90
41344;DHT22;27089;50.022;7.604;2022-10-16T10:35:17;18.10;99.90
41344;DHT22;27089;50.022;7.604;2022-10-16T10:37:57;18.20;99.90
41344;DHT22;27089;50.022;7.604;2022-10-16T10:40:36;18.30;99.90
41344;DHT22;27089;50.022;7.604;2022-10-16T10:43:10;18.20;99.90
41344;DHT22;27089;50.022;7.604;2022-10-16T10:45:43;18.30;99.90
41344;DHT22;27089;50.022;7.604;2022-10-16T10:48:31;18.30;99.90
41344;DHT22;27089;50.022;7.604;2022-10-16T10:51:06;18.30;99.90
41344;DHT22;27089;50.022;7.604;2022-10-16T10:53:45;18.50;99.90
41344;DHT22;27089;50.022;7.604;2022-10-16T10:56:22;18.60;99.90
41344;DHT22;27089;50.022;7.604;2022-10-16T10:59:07;18.80;99.90
41344;DHT22;27089;50.022;7.604;2022-10-16T11:01:41;19.00;99.90
41344;DHT22;27089;50.022;7.604;2022-10-16T11:04:35;19.10;99.90
41344;DHT22;27089;50.022;7.604;2022-10-16T11:07:05;18.90;99.90
41344;DHT22;27089;50.022;7.604;2022-10-16T11:09:38;18.70;99.90
41344;DHT22;27089;50.022;7.604;2022-10-16T11:12:11;18.50;99.90
41344;DHT22;27089;50.022;7.604;2022-10-16T11:14:46;18.30;99.90
41344;DHT22;27089;50.022;7.604;2022-10-16T11:17:19;18.20;99.90
41344;DHT22;27089;50.022;7.604;2022-10-16T11:19:55;18.10;99.90
41344;DHT22;27089;50.022;7.604;2022-10-16T11:22:30;18.10;99.90
41344;DHT22;27089;50.022;7.604;2022-10-16T11:25:02;18.30;99.90
41344;DHT22;27089;50.022;7.604;2022-10-16T11:27:37;18.40;99.90
41344;DHT22;27089;50.022;7.604;2022-10-16T11:30:13;18.60;99.90
41344;DHT22;27089;50.022;7.604;2022-10-16T11:32:50;18.70;99.90
41344;DHT22;27089;50.022;7.604;2022-10-16T11:35:24;18.80;99.90
41344;DHT22;27089;50.022;7.604;2022-10-16T11:37:56;18.90;99.90
41344;DHT22;27089;50.022;7.604;2022-10-16T11:40:28;19.00;99.90
41344;DHT22;27089;50.022;7.604;2022-10-16T11:43:04;19.00;99.90
41344;DHT22;27089;50.022;7.604;2022-10-16T11:45:38;19.00;99.90
41344;DHT22;27089;50.022;7.604;2022-10-16T11:48:17;19.20;99.90
41344;DHT22;27089;50.022;7.604;2022-10-16T11:50:51;19.50;99.90
41344;DHT22;27089;50.022;7.604;2022-10-16T11:53:27;19.70;99.90
41344;DHT22;27089;50.022;7.604;2022-10-16T11:55:55;19.80;99.90
41344;DHT22;27089;50.022;7.604;2022-10-16T11:58:25;19.90;99.90
41344;DHT22;27089;50.022;7.604;2022-10-16T12:00:58;20.00;99.90
41344;DHT22;27089;50.022;7.604;2022-10-16T12:03:29;19.90;99.90
41344;DHT22;27089;50.022;7.604;2022-10-16T12:06:22;19.90;99.90
41344;DHT22;27089;50.022;7.604;2022-10-16T12:08:53;19.70;99.90
41344;DHT22;27089;50.022;7.604;2022-10-16T12:11:33;19.50;99.90
41344;DHT22;27089;50.022;7.604;2022-10-16T12:14:18;19.40;99.90
41344;DHT22;27089;50.022;7.604;2022-10-16T12:16:53;19.20;99.90
41344;DHT22;27089;50.022;7.604;2022-10-16T12:19:23;19.10;99.90
41344;DHT22;27089;50.022;7.604;2022-10-16T12:21:55;19.10;99.90
41344;DHT22;27089;50.022;7.604;2022-10-16T12:24:35;19.10;99.90
41344;DHT22;27089;50.022;7.604;2022-10-16T12:27:04;19.20;99.90
41344;DHT22;27089;50.022;7.604;2022-10-16T12:29:35;19.10;99.90
41344;DHT22;27089;50.022;7.604;2022-10-16T12:32:05;19.10;99.90
41344;DHT22;27089;50.022;7.604;2022-10-16T12:34:39;19.00;99.90
41344;DHT22;27089;50.022;7.604;2022-10-16T12:37:13;18.90;99.90
41344;DHT22;27089;50.022;7.604;2022-10-16T12:39:42;18.80;99.90
41344;DHT22;27089;50.022;7.604;2022-10-16T12:42:32;18.70;99.90
41344;DHT22;27089;50.022;7.604;2022-10-16T12:45:00;18.60;99.90
41344;DHT22;27089;50.022;7.604;2022-10-16T12:47:47;18.60;99.90
41344;DHT22;27089;50.022;7.604;2022-10-16T12:50:33;18.60;99.90
41344;DHT22;27089;50.022;7.604;2022-10-16T12:53:04;18.70;99.90
41344;DHT22;27089;50.022;7.604;2022-10-16T12:55:51;18.70;99.90
41344;DHT22;27089;50.022;7.604;2022-10-16T12:58:33;18.70;99.90
41344;DHT22;27089;50.022;7.604;2022-10-16T13:01:10;18.70;99.90
41344;DHT22;27089;50.022;7.604;2022-10-16T13:04:23;18.70;99.90
41344;DHT22;27089;50.022;7.604;2022-10-16T13:07:00;18.70;99.90
41344;DHT22;27089;50.022;7.604;2022-10-16T13:09:39;18.70;99.90
41344;DHT22;27089;50.022;7.604;2022-10-16T13:12:25;18.70;99.90
41344;DHT22;27089;50.022;7.604;2022-10-16T13:18:04;18.60;99.90
41344;DHT22;27089;50.022;7.604;2022-10-16T13:20:42;18.60;99.90
41344;DHT22;27089;50.022;7.604;2022-10-16T13:23:16;18.60;99.90
41344;DHT22;27089;50.022;7.604;2022-10-16T13:26:00;18.60;99.90
41344;DHT22;27089;50.022;7.604;2022-10-16T13:28:33;18.60;99.90
41344;DHT22;27089;50.022;7.604;2022-10-16T13:31:02;18.60;99.90
41344;DHT22;27089;50.022;7.604;2022-10-16T13:33:32;18.50;99.90
41344;DHT22;27089;50.022;7.604;2022-10-16T13:36:00;18.50;99.90
41344;DHT22;27089;50.022;7.604;2022-10-16T13:38:28;18.50;99.90
41344;DHT22;27089;50.022;7.604;2022-10-16T13:40:58;18.50;99.90
41344;DHT22;27089;50.022;7.604;2022-10-16T13:43:28;18.50;99.90
41344;DHT22;27089;50.022;7.604;2022-10-16T13:46:00;18.50;99.90
41344;DHT22;27089;50.022;7.604;2022-10-16T13:48:28;18.60;99.90
41344;DHT22;27089;50.022;7.604;2022-10-16T13:51:04;18.60;99.90
41344;DHT22;27089;50.022;7.604;2022-10-16T13:53:32;18.70;99.90
41344;DHT22;27089;50.022;7.604;2022-10-16T13:56:02;18.70;99.90
41344;DHT22;27089;50.022;7.604;2022-10-16T13:58:29;18.70;99.90
41344;DHT22;27089;50.022;7.604;2022-10-16T14:00:58;18.70;99.90
41344;DHT22;27089;50.022;7.604;2022-10-16T14:03:27;18.80;99.90
41344;DHT22;27089;50.022;7.604;2022-10-16T14:05:56;18.80;99.90
41344;DHT22;27089;50.022;7.604;2022-10-16T14:08:25;18.80;99.90
41344;DHT22;27089;50.022;7.604;2022-10-16T14:10:55;18.90;99.90
41344;DHT22;27089;50.022;7.604;2022-10-16T14:13:31;18.90;99.90
41344;DHT22;27089;50.022;7.604;2022-10-16T14:16:01;19.00;99.90
41344;DHT22;27089;50.022;7.604;2022-10-16T14:18:29;19.00;99.90
41344;DHT22;27089;50.022;7.604;2022-10-16T14:21:03;19.00;99.90
41344;DHT22;27089;50.022;7.604;2022-10-16T14:23:34;19.00;99.90
41344;DHT22;27089;50.022;7.604;2022-10-16T14:26:16;19.00;99.90
41344;DHT22;27089;50.022;7.604;2022-10-16T14:28:47;18.90;99.90
41344;DHT22;27089;50.022;7.604;2022-10-16T14:31:29;18.80;99.90
41344;DHT22;27089;50.022;7.604;2022-10-16T14:33:57;18.70;99.90
41344;DHT22;27089;50.022;7.604;2022-10-16T14:36:25;18.60;99.90
41344;DHT22;27089;50.022;7.604;2022-10-16T14:39:01;18.60;99.90
41344;DHT22;27089;50.022;7.604;2022-10-16T14:41:30;18.60;99.90
41344;DHT22;27089;50.022;7.604;2022-10-16T14:44:02;18.50;99.90
41344;DHT22;27089;50.022;7.604;2022-10-16T14:46:33;18.50;99.90
41344;DHT22;27089;50.022;7.604;2022-10-16T14:49:05;18.50;99.90
41344;DHT22;27089;50.022;7.604;2022-10-16T14:51:41;18.50;99.90
41344;DHT22;27089;50.022;7.604;2022-10-16T14:54:10;18.40;99.90
41344;DHT22;27089;50.022;7.604;2022-10-16T14:56:46;18.40;99.90
41344;DHT22;27089;50.022;7.604;2022-10-16T14:59:17;18.40;99.90
41344;DHT22;27089;50.022;7.604;2022-10-16T15:01:46;18.40;99.90
41344;DHT22;27089;50.022;7.604;2022-10-16T15:04:14;18.30;99.90
41344;DHT22;27089;50.022;7.604;2022-10-16T15:06:42;18.30;99.90
41344;DHT22;27089;50.022;7.604;2022-10-16T15:09:09;18.20;99.90
41344;DHT22;27089;50.022;7.604;2022-10-16T15:11:36;18.20;99.90
41344;DHT22;27089;50.022;7.604;2022-10-16T15:14:04;18.20;99.90
41344;DHT22;27089;50.022;7.604;2022-10-16T15:16:34;18.10;99.90
41344;DHT22;27089;50.022;7.604;2022-10-16T15:19:01;18.10;99.90
41344;DHT22;27089;50.022;7.604;2022-10-16T15:21:30;18.10;99.90
41344;DHT22;27089;50.022;7.604;2022-10-16T15:23:58;18.10;99.90
41344;DHT22;27089;50.022;7.604;2022-10-16T15:26:27;18.10;99.90
41344;DHT22;27089;50.022;7.604;2022-10-16T15:28:54;18.10;99.90
41344;DHT22;27089;50.022;7.604;2022-10-16T15:31:21;18.00;99.90
41344;DHT22;27089;50.022;7.604;2022-10-16T15:33:51;18.00;99.90
41344;DHT22;27089;50.022;7.604;2022-10-16T15:36:27;18.00;99.90
41344;DHT22;27089;50.022;7.604;2022-10-16T15:38:55;17.90;99.90
41344;DHT22;27089;50.022;7.604;2022-10-16T15:41:22;17.90;99.90
41344;DHT22;27089;50.022;7.604;2022-10-16T15:43:50;17.80;99.90
41344;DHT22;27089;50.022;7.604;2022-10-16T15:46:19;17.80;99.90
41344;DHT22;27089;50.022;7.604;2022-10-16T15:48:47;17.80;99.90
41344;DHT22;27089;50.022;7.604;2022-10-16T15:51:16;17.70;99.90
41344;DHT22;27089;50.022;7.604;2022-10-16T15:53:43;17.70;99.90
41344;DHT22;27089;50.022;7.604;2022-10-16T15:56:12;17.70;99.90